createdAt,value
2023-05-08T00:00:15.964Z,0.86
2023-05-08T00:01:15.949Z,0.76
2023-05-08T00:02:15.987Z,0.92
2023-05-08T00:03:16.107Z,1.07
2023-05-08T00:04:16.177Z,0.89
2023-05-08T00:05:15.967Z,1.01
2023-05-08T00:06:15.950Z,0.94
2023-05-08T00:07:16.002Z,0.76
2023-05-08T00:08:15.938Z,0.65
2023-05-08T00:09:15.987Z,0.79
2023-05-08T00:10:16.112Z,1.14
2023-05-08T00:11:15.939Z,0.86
2023-05-08T00:12:15.936Z,0.80
2023-05-08T00:13:15.995Z,0.52
2023-05-08T00:14:15.936Z,0.75
2023-05-08T00:15:15.945Z,0.85
2023-05-08T00:16:15.946Z,0.64
2023-05-08T00:17:15.937Z,0.82
2023-05-08T00:18:15.914Z,1.04
2023-05-08T00:19:15.925Z,0.77
2023-05-08T00:20:15.931Z,0.97
2023-05-08T00:21:15.910Z,0.90
2023-05-08T00:22:15.932Z,1.05
2023-05-08T00:23:15.892Z,0.80
2023-05-08T00:24:15.892Z,0.81
2023-05-08T00:25:15.893Z,0.73
2023-05-08T00:26:15.887Z,0.71
2023-05-08T00:27:15.887Z,0.97
2023-05-08T00:28:15.888Z,0.86
2023-05-08T00:29:15.878Z,0.83
2023-05-08T00:30:15.867Z,0.61
2023-05-08T00:31:15.885Z,0.72
2023-05-08T00:32:16.011Z,0.79
2023-05-08T00:33:15.904Z,0.66
2023-05-08T00:34:15.834Z,0.96
2023-05-08T00:35:15.802Z,0.93
2023-05-08T00:36:15.813Z,0.79
2023-05-08T00:37:15.768Z,1.00
2023-05-08T00:38:15.781Z,0.73
2023-05-08T00:39:15.754Z,0.86
2023-05-08T00:40:15.944Z,0.82
2023-05-08T00:41:15.723Z,0.90
2023-05-08T00:42:15.693Z,0.78
2023-05-08T00:43:15.676Z,0.75
2023-05-08T00:44:15.656Z,0.87
2023-05-08T00:45:15.661Z,0.79
2023-05-08T00:46:15.648Z,0.89
2023-05-08T00:47:15.610Z,0.60
2023-05-08T00:48:15.597Z,0.55
2023-05-08T00:49:15.585Z,0.89
2023-05-08T00:50:15.675Z,0.82
2023-05-08T00:51:15.584Z,0.76
2023-05-08T00:52:15.566Z,0.78
2023-05-08T00:53:15.576Z,0.75
2023-05-08T00:54:15.565Z,0.86
2023-05-08T00:55:15.567Z,0.73
2023-05-08T00:56:15.549Z,0.73
2023-05-08T00:57:15.532Z,0.57
2023-05-08T00:58:15.541Z,0.91
2023-05-08T00:59:15.514Z,0.91
2023-05-08T01:00:15.496Z,0.82
2023-05-08T01:01:15.564Z,0.89
2023-05-08T01:02:15.557Z,0.85
2023-05-08T01:03:15.525Z,0.75
2023-05-08T01:04:15.485Z,0.51
2023-05-08T01:05:15.507Z,1.03
2023-05-08T01:06:15.478Z,0.78
2023-05-08T01:07:15.486Z,0.81
2023-05-08T01:08:15.496Z,0.64
2023-05-08T01:09:15.479Z,0.66
2023-05-08T01:10:15.662Z,0.94
2023-05-08T01:11:15.486Z,0.89
2023-05-08T01:12:15.497Z,0.73
2023-05-08T01:13:15.476Z,0.75
2023-05-08T01:14:15.472Z,0.79
2023-05-08T01:15:15.472Z,0.73
2023-05-08T01:16:15.523Z,0.91
2023-05-08T01:17:15.465Z,0.81
2023-05-08T01:18:15.485Z,0.91
2023-05-08T01:19:15.495Z,0.77
2023-05-08T01:20:15.688Z,0.74
2023-05-08T01:21:15.471Z,0.75
2023-05-08T01:22:15.464Z,0.82
2023-05-08T01:23:15.454Z,0.62
2023-05-08T01:24:15.460Z,0.79
2023-05-08T01:25:15.479Z,0.91
2023-05-08T01:26:15.454Z,0.75
2023-05-08T01:27:15.461Z,0.90
2023-05-08T01:28:15.459Z,0.74
2023-05-08T01:29:15.457Z,0.70
2023-05-08T01:30:15.463Z,0.59
2023-05-08T01:31:15.463Z,0.82
2023-05-08T01:32:15.463Z,0.68
2023-05-08T01:33:15.534Z,0.78
2023-05-08T01:34:15.456Z,0.92
2023-05-08T01:35:15.484Z,0.75
2023-05-08T01:36:15.495Z,0.65
2023-05-08T01:37:15.495Z,1.05
2023-05-08T01:38:15.491Z,1.24
2023-05-08T01:39:15.484Z,0.75
2023-05-08T01:40:15.697Z,0.73
2023-05-08T01:41:15.480Z,0.80
2023-05-08T01:42:15.488Z,0.86
2023-05-08T01:43:15.471Z,0.99
2023-05-08T01:44:15.485Z,0.89
2023-05-08T01:45:15.487Z,0.84
2023-05-08T01:46:15.524Z,0.66
2023-05-08T01:47:15.476Z,0.61
2023-05-08T01:48:15.476Z,0.97
2023-05-08T01:49:15.485Z,1.19
2023-05-08T01:50:15.604Z,0.72
2023-05-08T01:51:15.529Z,0.72
2023-05-08T01:52:15.487Z,0.87
2023-05-08T01:53:15.493Z,0.72
2023-05-08T01:54:15.537Z,0.72
2023-05-08T01:55:15.495Z,0.94
2023-05-08T01:56:15.499Z,1.00
2023-05-08T01:57:15.517Z,0.83
2023-05-08T01:58:15.562Z,0.82
2023-05-08T01:59:15.502Z,0.93
2023-05-08T02:00:15.595Z,0.79
2023-05-08T02:01:15.544Z,0.71
2023-05-08T02:02:15.536Z,0.81
2023-05-08T02:03:15.552Z,0.95
2023-05-08T02:04:15.573Z,0.84
2023-05-08T02:05:15.522Z,0.60
2023-05-08T02:06:15.515Z,0.73
2023-05-08T02:07:15.613Z,0.91
2023-05-08T02:08:15.523Z,0.78
2023-05-08T02:09:15.617Z,0.90
2023-05-08T02:10:15.664Z,0.80
2023-05-08T02:11:15.533Z,0.82
2023-05-08T02:12:15.555Z,0.68
2023-05-08T02:13:15.548Z,0.87
2023-05-08T02:14:15.529Z,0.67
2023-05-08T02:15:15.530Z,0.74
2023-05-08T02:16:15.577Z,0.70
2023-05-08T02:17:15.538Z,0.62
2023-05-08T02:18:15.552Z,0.52
2023-05-08T02:19:15.578Z,0.76
2023-05-08T02:20:15.580Z,0.70
2023-05-08T02:21:15.536Z,1.10
2023-05-08T02:22:15.585Z,1.25
2023-05-08T02:23:15.530Z,1.02
2023-05-08T02:24:15.536Z,0.78
2023-05-08T02:25:15.542Z,0.76
2023-05-08T02:26:15.555Z,0.80
2023-05-08T02:27:15.565Z,0.79
2023-05-08T02:28:15.571Z,0.83
2023-05-08T02:29:15.546Z,0.68
2023-05-08T02:30:15.633Z,0.91
2023-05-08T02:31:15.540Z,1.09
2023-05-08T02:32:15.554Z,1.34
2023-05-08T02:33:15.506Z,0.92
2023-05-08T02:34:15.504Z,0.80
2023-05-08T02:35:15.465Z,1.07
2023-05-08T02:36:15.451Z,0.65
2023-05-08T02:37:15.434Z,0.67
2023-05-08T02:38:15.430Z,0.80
2023-05-08T02:39:15.415Z,0.78
2023-05-08T02:40:15.517Z,0.73
2023-05-08T02:41:15.384Z,0.72
2023-05-08T02:42:15.364Z,0.71
2023-05-08T02:43:15.346Z,1.01
2023-05-08T02:44:15.340Z,0.78
2023-05-08T02:45:15.332Z,0.72
2023-05-08T02:46:15.344Z,0.92
2023-05-08T02:47:15.307Z,0.85
2023-05-08T02:48:15.277Z,0.93
2023-05-08T02:49:15.264Z,0.79
2023-05-08T02:50:15.274Z,0.84
2023-05-08T02:51:15.249Z,0.87
2023-05-08T02:52:15.236Z,0.83
2023-05-08T02:53:15.203Z,0.76
2023-05-08T02:54:15.228Z,0.89
2023-05-08T02:55:15.205Z,0.96
2023-05-08T02:56:15.193Z,1.11
2023-05-08T02:57:15.180Z,0.90
2023-05-08T02:58:15.208Z,0.84
2023-05-08T02:59:15.138Z,0.51
2023-05-08T03:00:15.157Z,0.92
2023-05-08T03:01:15.129Z,0.76
2023-05-08T03:02:15.168Z,0.66
2023-05-08T03:03:15.356Z,0.74
2023-05-08T03:04:15.077Z,0.76
2023-05-08T03:05:15.053Z,0.66
2023-05-08T03:06:15.040Z,0.95
2023-05-08T03:07:15.028Z,1.02
2023-05-08T03:08:15.037Z,0.63
2023-05-08T03:09:15.026Z,0.67
2023-05-08T03:10:15.222Z,0.79
2023-05-08T03:11:15.052Z,0.91
2023-05-08T03:12:15.069Z,0.60
2023-05-08T03:13:15.136Z,0.91
2023-05-08T03:14:15.083Z,0.98
2023-05-08T03:15:15.071Z,0.70
2023-05-08T03:16:15.169Z,0.97
2023-05-08T03:17:15.041Z,0.80
2023-05-08T03:18:15.044Z,0.61
2023-05-08T03:19:15.028Z,0.66
2023-05-08T03:20:15.253Z,0.64
2023-05-08T03:21:15.028Z,0.81
2023-05-08T03:22:15.010Z,0.57
2023-05-08T03:23:15.042Z,0.69
2023-05-08T03:24:15.002Z,0.73
2023-05-08T03:25:14.978Z,0.82
2023-05-08T03:26:14.976Z,0.82
2023-05-08T03:27:15.005Z,1.31
2023-05-08T03:28:14.966Z,0.98
2023-05-08T03:29:14.949Z,0.87
2023-05-08T03:30:15.080Z,0.80
2023-05-08T03:31:14.981Z,0.95
2023-05-08T03:32:14.944Z,0.67
2023-05-08T03:33:14.928Z,0.92
2023-05-08T03:34:14.940Z,0.79
2023-05-08T03:35:14.912Z,1.04
2023-05-08T03:36:14.907Z,0.66
2023-05-08T03:37:14.902Z,0.88
2023-05-08T03:38:14.883Z,0.56
2023-05-08T03:39:14.863Z,0.81
2023-05-08T03:40:14.992Z,0.95
2023-05-08T03:41:14.845Z,0.83
2023-05-08T03:42:14.840Z,0.78
2023-05-08T03:43:14.825Z,0.92
2023-05-08T03:44:14.819Z,0.66
2023-05-08T03:45:14.806Z,0.83
2023-05-08T03:46:14.852Z,0.77
2023-05-08T03:47:14.802Z,0.73
2023-05-08T03:48:14.802Z,0.62
2023-05-08T03:49:14.775Z,0.88
2023-05-08T03:50:14.886Z,0.58
2023-05-08T03:51:14.756Z,0.78
2023-05-08T03:52:14.741Z,0.72
2023-05-08T03:53:14.720Z,0.55
2023-05-08T03:54:14.714Z,0.79
2023-05-08T03:55:14.691Z,0.74
2023-05-08T03:56:14.681Z,0.70
2023-05-08T03:57:14.688Z,0.77
2023-05-08T03:58:14.650Z,0.73
2023-05-08T03:59:14.657Z,0.81
2023-05-08T04:00:14.879Z,0.73
2023-05-08T04:01:14.679Z,0.87
2023-05-08T04:02:14.758Z,0.80
2023-05-08T04:03:14.795Z,0.72
2023-05-08T04:04:14.753Z,0.94
2023-05-08T04:05:14.723Z,0.69
2023-05-08T04:06:14.749Z,0.75
2023-05-08T04:07:14.747Z,0.84
2023-05-08T04:08:14.757Z,0.78
2023-05-08T04:09:14.764Z,0.80
2023-05-08T04:10:14.924Z,0.54
2023-05-08T04:11:14.790Z,0.76
2023-05-08T04:12:14.802Z,0.74
2023-05-08T04:13:14.824Z,0.65
2023-05-08T04:14:14.811Z,0.68
2023-05-08T04:15:15.065Z,0.77
2023-05-08T04:16:14.886Z,0.97
2023-05-08T04:17:14.849Z,1.21
2023-05-08T04:18:14.868Z,1.22
2023-05-08T04:19:14.877Z,0.85
2023-05-08T04:20:14.875Z,0.71
2023-05-08T04:21:14.885Z,0.67
2023-05-08T04:22:14.894Z,0.59
2023-05-08T04:23:14.921Z,0.79
2023-05-08T04:24:14.933Z,0.84
2023-05-08T04:25:15.310Z,0.99
2023-05-08T04:26:16.495Z,1.02
2023-05-08T04:27:14.962Z,0.65
2023-05-08T04:28:14.972Z,0.77
2023-05-08T04:29:14.973Z,0.69
2023-05-08T04:30:14.994Z,0.58
2023-05-08T04:31:14.983Z,0.81
2023-05-08T04:32:15.118Z,0.85
2023-05-08T04:33:15.024Z,0.88
2023-05-08T04:34:15.008Z,0.68
2023-05-08T04:35:15.281Z,0.70
2023-05-08T04:36:15.053Z,0.72
2023-05-08T04:37:15.061Z,0.61
2023-05-08T04:38:15.053Z,0.64
2023-05-08T04:39:15.008Z,0.95
2023-05-08T04:40:14.986Z,0.52
2023-05-08T04:41:15.007Z,0.75
2023-05-08T04:42:14.969Z,0.74
2023-05-08T04:43:14.969Z,0.63
2023-05-08T04:44:14.951Z,0.65
2023-05-08T04:45:15.138Z,0.91
2023-05-08T04:46:15.100Z,1.04
2023-05-08T04:47:14.925Z,0.82
2023-05-08T04:48:14.921Z,0.67
2023-05-08T04:49:14.903Z,0.79
2023-05-08T04:50:14.936Z,0.67
2023-05-08T04:51:14.877Z,0.76
2023-05-08T04:52:14.871Z,0.57
2023-05-08T04:53:14.876Z,0.66
2023-05-08T04:54:14.868Z,0.69
2023-05-08T04:55:14.968Z,0.63
2023-05-08T04:56:14.858Z,0.71
2023-05-08T04:57:14.834Z,0.64
2023-05-08T04:58:14.822Z,0.57
2023-05-08T04:59:16.207Z,0.67
2023-05-08T05:00:14.795Z,0.73
2023-05-08T05:01:14.813Z,0.83
2023-05-08T05:02:14.760Z,0.92
2023-05-08T05:03:14.849Z,0.65
2023-05-08T05:04:14.833Z,0.59
2023-05-08T05:05:14.989Z,0.47
2023-05-08T05:06:14.739Z,0.87
2023-05-08T05:07:14.697Z,0.67
2023-05-08T05:08:14.689Z,0.76
2023-05-08T05:09:14.687Z,0.58
2023-05-08T05:10:14.660Z,0.87
2023-05-08T05:11:14.646Z,0.61
2023-05-08T05:12:14.656Z,0.69
2023-05-08T05:13:14.671Z,0.76
2023-05-08T05:14:14.636Z,0.88
2023-05-08T05:15:14.840Z,0.78
2023-05-08T05:16:14.764Z,1.04
2023-05-08T05:17:14.596Z,0.66
2023-05-08T05:18:14.583Z,0.75
2023-05-08T05:19:14.576Z,0.70
2023-05-08T05:20:14.583Z,1.13
2023-05-08T05:21:14.578Z,0.85
2023-05-08T05:22:14.589Z,1.16
2023-05-08T05:23:14.625Z,0.84
2023-05-08T05:24:14.620Z,0.89
2023-05-08T05:25:14.986Z,0.88
2023-05-08T05:26:14.650Z,0.68
2023-05-08T05:27:14.760Z,1.01
2023-05-08T05:28:14.692Z,0.71
2023-05-08T05:29:14.720Z,0.72
2023-05-08T05:30:14.844Z,0.86
2023-05-08T05:31:14.756Z,0.56
2023-05-08T05:32:14.743Z,0.77
2023-05-08T05:33:14.744Z,0.76
2023-05-08T05:34:14.811Z,0.88
2023-05-08T05:35:15.085Z,0.88
2023-05-08T05:36:14.796Z,0.88
2023-05-08T05:37:14.821Z,0.97
2023-05-08T05:38:14.868Z,0.75
2023-05-08T05:39:14.845Z,1.11
2023-05-08T05:40:14.845Z,1.07
2023-05-08T05:41:14.882Z,0.86
2023-05-08T05:42:14.863Z,1.39
2023-05-08T05:43:14.866Z,0.94
2023-05-08T05:44:14.862Z,0.93
2023-05-08T05:45:15.036Z,1.09
2023-05-08T05:46:14.920Z,0.98
2023-05-08T05:47:14.990Z,1.62
2023-05-08T05:48:14.854Z,2.02
2023-05-08T05:49:14.894Z,1.59
2023-05-08T05:50:15.015Z,1.80
2023-05-08T05:51:14.863Z,2.07
2023-05-08T05:52:15.358Z,2.14
2023-05-08T05:53:14.836Z,2.14
2023-05-08T05:54:14.843Z,2.02
2023-05-08T05:55:15.011Z,1.87
2023-05-08T05:56:14.907Z,2.52
2023-05-08T05:57:14.945Z,2.38
2023-05-08T05:58:15.873Z,1.82
2023-05-08T05:59:15.869Z,2.03
2023-05-08T06:00:15.050Z,2.21
2023-05-08T06:01:15.102Z,2.79
2023-05-08T06:02:15.197Z,2.62
2023-05-08T06:03:15.188Z,2.26
2023-05-08T06:04:15.301Z,2.42
2023-05-08T06:05:15.294Z,2.81
2023-05-08T06:06:15.260Z,2.14
2023-05-08T06:07:15.295Z,2.51
2023-05-08T06:08:15.333Z,2.05
2023-05-08T06:09:15.361Z,2.18
2023-05-08T06:10:15.406Z,2.52
2023-05-08T06:11:15.439Z,1.82
2023-05-08T06:12:15.516Z,3.22
2023-05-08T06:13:15.584Z,2.09
2023-05-08T06:14:15.604Z,1.46
2023-05-08T06:15:15.661Z,1.73
2023-05-08T06:16:15.735Z,1.80
2023-05-08T06:17:15.781Z,2.11
2023-05-08T06:18:15.762Z,1.97
2023-05-08T06:19:15.815Z,1.63
2023-05-08T06:20:15.827Z,1.84
2023-05-08T06:21:15.898Z,1.80
2023-05-08T06:22:15.902Z,1.87
2023-05-08T06:23:15.932Z,1.92
2023-05-08T06:24:15.939Z,1.64
2023-05-08T06:25:16.017Z,1.60
2023-05-08T06:26:15.948Z,1.45
2023-05-08T06:27:15.957Z,1.84
2023-05-08T06:28:15.959Z,1.40
2023-05-08T06:29:15.903Z,1.83
2023-05-08T06:30:15.859Z,1.44
2023-05-08T06:31:15.922Z,1.88
2023-05-08T06:32:16.421Z,1.72
2023-05-08T06:33:15.819Z,1.68
2023-05-08T06:34:15.770Z,1.92
2023-05-08T06:35:15.756Z,1.90
2023-05-08T06:36:15.755Z,1.87
2023-05-08T06:37:15.850Z,1.65
2023-05-08T06:38:15.846Z,1.70
2023-05-08T06:39:15.760Z,1.50
2023-05-08T06:40:15.774Z,1.94
2023-05-08T06:41:15.793Z,1.74
2023-05-08T06:42:15.795Z,1.30
2023-05-08T06:43:15.850Z,1.89
2023-05-08T06:44:15.850Z,2.24
2023-05-08T06:45:16.186Z,1.98
2023-05-08T06:46:16.009Z,1.80
2023-05-08T06:47:15.938Z,1.86
2023-05-08T06:48:15.956Z,2.11
2023-05-08T06:49:16.003Z,1.48
2023-05-08T06:50:16.040Z,1.82
2023-05-08T06:51:16.035Z,1.59
2023-05-08T06:52:16.058Z,1.81
2023-05-08T06:53:16.076Z,1.39
2023-05-08T06:54:16.104Z,1.56
2023-05-08T06:55:16.128Z,1.62
2023-05-08T06:56:16.133Z,1.30
2023-05-08T06:57:16.215Z,1.22
2023-05-08T06:58:16.210Z,1.51
2023-05-08T06:59:16.192Z,1.22
2023-05-08T07:00:16.210Z,1.19
2023-05-08T07:01:16.350Z,1.04
2023-05-08T07:02:16.430Z,1.99
2023-05-08T07:03:16.260Z,1.21
2023-05-08T07:04:16.318Z,0.98
2023-05-08T07:05:16.609Z,1.05
2023-05-08T07:06:16.319Z,0.82
2023-05-08T07:07:16.342Z,1.12
2023-05-08T07:08:16.362Z,1.07
2023-05-08T07:09:16.371Z,0.99
2023-05-08T07:10:16.391Z,1.11
2023-05-08T07:11:16.466Z,0.95
2023-05-08T07:12:16.479Z,1.10
2023-05-08T07:13:16.652Z,2.06
2023-05-08T07:14:16.487Z,1.73
2023-05-08T07:15:25.653Z,1.48
2023-05-08T07:16:17.495Z,1.69
2023-05-08T07:17:16.481Z,1.41
2023-05-08T07:18:16.808Z,1.46
2023-05-08T07:19:16.416Z,1.52
2023-05-08T07:20:16.394Z,1.61
2023-05-08T07:21:16.411Z,1.41
2023-05-08T07:22:16.418Z,1.63
2023-05-08T07:23:16.328Z,1.33
2023-05-08T07:24:16.303Z,1.36
2023-05-08T07:25:16.385Z,1.33
2023-05-08T07:26:16.390Z,1.17
2023-05-08T07:27:16.400Z,1.19
2023-05-08T07:28:16.487Z,1.75
2023-05-08T07:29:16.612Z,1.16
2023-05-08T07:30:16.625Z,1.28
2023-05-08T07:31:16.696Z,1.13
2023-05-08T07:32:16.644Z,1.23
2023-05-08T07:33:16.690Z,1.43
2023-05-08T07:34:16.755Z,1.34
2023-05-08T07:35:17.054Z,1.40
2023-05-08T07:36:16.826Z,1.15
2023-05-08T07:37:16.893Z,1.55
2023-05-08T07:38:16.926Z,1.33
2023-05-08T07:39:16.983Z,1.78
2023-05-08T07:40:17.008Z,3.71
2023-05-08T07:41:17.082Z,2.28
2023-05-08T07:42:17.293Z,2.32
2023-05-08T07:43:17.118Z,2.51
2023-05-08T07:44:17.151Z,2.52
2023-05-08T07:45:17.361Z,1.95
2023-05-08T07:46:17.321Z,1.93
2023-05-08T07:47:17.305Z,1.98
2023-05-08T07:48:17.306Z,1.75
2023-05-08T07:49:17.382Z,2.48
2023-05-08T07:50:17.413Z,1.73
2023-05-08T07:51:17.471Z,1.56
2023-05-08T07:52:17.425Z,1.98
2023-05-08T07:53:17.449Z,1.90
2023-05-08T07:54:17.565Z,2.04
2023-05-08T07:55:17.487Z,1.50
2023-05-08T07:56:17.507Z,1.68
2023-05-08T07:57:17.554Z,1.61
2023-05-08T07:58:17.598Z,1.48
2023-05-08T07:59:17.615Z,2.16
2023-05-08T08:00:17.635Z,1.19
2023-05-08T08:01:17.737Z,1.55
2023-05-08T08:02:17.705Z,5.35
2023-05-08T08:03:17.734Z,5.00
2023-05-08T08:04:17.665Z,5.40
2023-05-08T08:05:17.623Z,5.37
2023-05-08T08:06:17.650Z,4.91
2023-05-08T08:07:17.650Z,3.91
2023-05-08T08:08:17.677Z,4.19
2023-05-08T08:09:17.804Z,3.65
2023-05-08T08:10:17.775Z,3.42
2023-05-08T08:11:17.829Z,3.13
2023-05-08T08:12:17.853Z,3.11
2023-05-08T08:13:17.953Z,3.04
2023-05-08T08:14:17.972Z,3.14
2023-05-08T08:15:17.957Z,3.20
2023-05-08T08:16:18.015Z,3.22
2023-05-08T08:17:18.241Z,3.13
2023-05-08T08:18:18.092Z,2.90
2023-05-08T08:19:18.084Z,3.09
2023-05-08T08:20:18.158Z,2.71
2023-05-08T08:21:18.286Z,2.88
2023-05-08T08:22:18.211Z,2.33
2023-05-08T08:23:18.210Z,2.93
2023-05-08T08:24:18.281Z,2.21
2023-05-08T08:25:18.250Z,2.28
2023-05-08T08:26:18.266Z,2.09
2023-05-08T08:27:18.287Z,2.37
2023-05-08T08:28:18.294Z,2.34
2023-05-08T08:29:18.286Z,2.26
2023-05-08T08:30:19.106Z,2.17
2023-05-08T08:31:18.478Z,7.45
2023-05-08T08:32:18.367Z,9.07
2023-05-08T08:33:19.139Z,8.63
2023-05-08T08:34:18.418Z,8.85
2023-05-08T08:35:18.570Z,9.07
2023-05-08T08:36:18.512Z,8.64
2023-05-08T08:37:18.528Z,8.42
2023-05-08T08:38:18.593Z,7.81
2023-05-08T08:39:18.628Z,8.73
2023-05-08T08:40:18.604Z,8.38
2023-05-08T08:41:18.622Z,8.20
2023-05-08T08:42:18.629Z,7.28
2023-05-08T08:43:18.899Z,6.98
2023-05-08T08:44:18.627Z,6.81
2023-05-08T08:45:18.571Z,7.62
2023-05-08T08:46:18.584Z,6.22
2023-05-08T08:47:18.567Z,6.34
2023-05-08T08:48:18.580Z,6.25
2023-05-08T08:49:18.682Z,5.92
2023-05-08T08:50:18.575Z,6.08
2023-05-08T08:51:18.581Z,5.69
2023-05-08T08:52:18.550Z,5.32
2023-05-08T08:53:18.890Z,5.44
2023-05-08T08:54:18.548Z,4.91
2023-05-08T08:55:18.616Z,4.57
2023-05-08T08:56:18.519Z,4.57
2023-05-08T08:57:18.544Z,4.25
2023-05-08T08:58:18.565Z,4.51
2023-05-08T08:59:18.524Z,4.24
2023-05-08T09:00:18.502Z,3.52
2023-05-08T09:01:18.588Z,3.75
2023-05-08T09:02:18.642Z,3.38
2023-05-08T09:03:18.617Z,3.38
2023-05-08T09:04:18.489Z,2.92
2023-05-08T09:05:18.576Z,3.55
2023-05-08T09:06:18.560Z,3.05
2023-05-08T09:07:18.858Z,2.98
2023-05-08T09:08:18.494Z,2.90
2023-05-08T09:09:18.524Z,2.86
2023-05-08T09:10:18.492Z,2.73
2023-05-08T09:11:18.505Z,2.52
2023-05-08T09:12:18.476Z,2.50
2023-05-08T09:13:19.643Z,2.30
2023-05-08T09:14:18.509Z,2.15
2023-05-08T09:15:18.503Z,2.23
2023-05-08T09:16:18.514Z,2.53
2023-05-08T09:17:18.462Z,2.07
2023-05-08T09:18:18.479Z,2.21
2023-05-08T09:19:18.456Z,2.08
2023-05-08T09:20:18.424Z,2.47
2023-05-08T09:21:18.451Z,1.65
2023-05-08T09:22:18.347Z,1.65
2023-05-08T09:23:18.376Z,1.77
2023-05-08T09:24:18.400Z,1.57
2023-05-08T09:25:18.295Z,1.70
2023-05-08T09:26:18.263Z,2.04
2023-05-08T09:27:18.337Z,1.69
2023-05-08T09:28:18.256Z,1.84
2023-05-08T09:29:18.227Z,1.53
2023-05-08T09:30:18.246Z,1.65
2023-05-08T09:31:18.203Z,1.86
2023-05-08T09:32:18.179Z,1.63
2023-05-08T09:33:18.135Z,1.68
2023-05-08T09:34:18.103Z,1.96
2023-05-08T09:35:18.095Z,1.79
2023-05-08T09:36:18.040Z,1.78
2023-05-08T09:37:18.098Z,1.97
2023-05-08T09:38:18.008Z,1.29
2023-05-08T09:39:17.973Z,1.72
2023-05-08T09:40:17.942Z,1.66
2023-05-08T09:41:17.944Z,1.70
2023-05-08T09:42:17.899Z,1.73
2023-05-08T09:43:17.912Z,1.28
2023-05-08T09:44:17.880Z,1.32
2023-05-08T09:45:17.854Z,1.41
2023-05-08T09:46:17.952Z,1.52
2023-05-08T09:47:17.847Z,1.09
2023-05-08T09:48:17.856Z,1.22
2023-05-08T09:49:17.820Z,1.54
2023-05-08T09:50:18.297Z,1.08
2023-05-08T09:51:17.826Z,1.03
2023-05-08T09:52:17.785Z,0.94
2023-05-08T09:53:17.856Z,1.13
2023-05-08T09:54:17.761Z,0.83
2023-05-08T09:55:17.846Z,1.26
2023-05-08T09:56:18.376Z,0.93
2023-05-08T09:57:17.872Z,1.02
2023-05-08T09:58:17.802Z,0.91
2023-05-08T09:59:17.810Z,0.93
2023-05-08T10:00:17.900Z,0.91
2023-05-08T10:01:17.767Z,1.04
2023-05-08T10:02:17.713Z,0.94
2023-05-08T10:03:17.769Z,1.02
2023-05-08T10:04:17.701Z,1.06
2023-05-08T10:05:17.737Z,0.75
2023-05-08T10:06:17.680Z,0.93
2023-05-08T10:07:17.778Z,1.09
2023-05-08T10:08:17.739Z,0.75
2023-05-08T10:09:17.852Z,1.03
2023-05-08T10:10:17.791Z,1.10
2023-05-08T10:11:17.835Z,0.88
2023-05-08T10:12:17.959Z,1.25
2023-05-08T10:13:18.059Z,0.78
2023-05-08T10:14:18.002Z,1.00
2023-05-08T10:15:18.018Z,0.71
2023-05-08T10:16:18.096Z,0.88
2023-05-08T10:17:18.105Z,1.14
2023-05-08T10:18:18.107Z,0.92
2023-05-08T10:19:18.145Z,0.69
2023-05-08T10:20:19.499Z,0.73
2023-05-08T10:21:18.127Z,1.04
2023-05-08T10:22:18.083Z,1.02
2023-05-08T10:23:18.377Z,0.82
2023-05-08T10:24:18.116Z,0.98
2023-05-08T10:25:18.149Z,1.09
2023-05-08T10:26:18.086Z,1.03
2023-05-08T10:27:17.986Z,1.03
2023-05-08T10:28:18.193Z,1.15
2023-05-08T10:29:17.920Z,0.95
2023-05-08T10:30:17.875Z,1.09
2023-05-08T10:31:17.958Z,1.01
2023-05-08T10:32:17.816Z,0.66
2023-05-08T10:33:17.764Z,1.08
2023-05-08T10:34:17.815Z,1.08
2023-05-08T10:35:17.697Z,0.95
2023-05-08T10:36:17.733Z,1.20
2023-05-08T10:37:18.386Z,1.05
2023-05-08T10:38:17.873Z,1.92
2023-05-08T10:39:17.609Z,1.88
2023-05-08T10:40:17.627Z,1.94
2023-05-08T10:41:17.606Z,2.18
2023-05-08T10:42:17.511Z,1.84
2023-05-08T10:43:17.520Z,1.72
2023-05-08T10:44:17.470Z,1.91
2023-05-08T10:45:17.426Z,2.28
2023-05-08T10:46:17.478Z,2.14
2023-05-08T10:47:17.368Z,2.38
2023-05-08T10:48:17.344Z,2.53
2023-05-08T10:49:17.376Z,2.30
2023-05-08T10:50:17.325Z,2.09
2023-05-08T10:51:17.259Z,2.36
2023-05-08T10:52:17.255Z,2.24
2023-05-08T10:53:17.187Z,2.50
2023-05-08T10:54:17.163Z,2.05
2023-05-08T10:55:17.118Z,1.93
2023-05-08T10:56:17.091Z,2.20
2023-05-08T10:57:17.079Z,2.34
2023-05-08T10:58:17.017Z,2.31
2023-05-08T10:59:17.056Z,2.09
2023-05-08T11:00:16.992Z,1.65
2023-05-08T11:01:17.011Z,2.22
2023-05-08T11:02:16.952Z,2.16
2023-05-08T11:03:29.974Z,2.17
2023-05-08T11:04:17.985Z,2.10
2023-05-08T11:05:16.907Z,1.45
2023-05-08T11:06:16.778Z,1.87
2023-05-08T11:07:16.723Z,1.78
2023-05-08T11:08:16.898Z,1.74
2023-05-08T11:09:16.703Z,1.34
2023-05-08T11:10:16.701Z,1.69
2023-05-08T11:11:17.428Z,1.20
2023-05-08T11:12:16.560Z,1.43
2023-05-08T11:13:16.653Z,1.51
2023-05-08T11:14:16.469Z,1.73
2023-05-08T11:15:16.455Z,1.49
2023-05-08T11:16:16.431Z,1.01
2023-05-08T11:17:16.391Z,1.56
2023-05-08T11:18:16.397Z,1.07
2023-05-08T11:19:16.453Z,1.35
2023-05-08T11:20:16.610Z,1.34
2023-05-08T11:21:16.445Z,1.22
2023-05-08T11:22:16.931Z,1.35
2023-05-08T11:23:16.509Z,1.25
2023-05-08T11:24:16.456Z,1.04
2023-05-08T11:25:17.392Z,1.34
2023-05-08T11:26:17.039Z,1.19
2023-05-08T11:27:16.411Z,1.17
2023-05-08T11:28:16.439Z,0.95
2023-05-08T11:29:16.430Z,1.61
2023-05-08T11:30:16.476Z,1.02
2023-05-08T11:31:16.475Z,1.40
2023-05-08T11:32:16.421Z,1.31
2023-05-08T11:33:16.429Z,1.40
2023-05-08T11:34:17.454Z,1.43
2023-05-08T11:35:16.441Z,1.59
2023-05-08T11:36:16.458Z,2.09
2023-05-08T11:37:16.456Z,1.67
2023-05-08T11:38:16.445Z,1.37
2023-05-08T11:39:16.482Z,1.33
2023-05-08T11:40:16.497Z,1.53
2023-05-08T11:41:16.448Z,2.13
2023-05-08T11:42:16.467Z,2.31
2023-05-08T11:43:16.475Z,2.04
2023-05-08T11:44:16.507Z,1.62
2023-05-08T11:45:16.474Z,1.91
2023-05-08T11:46:16.617Z,1.98
2023-05-08T11:47:16.537Z,2.13
2023-05-08T11:48:16.567Z,2.37
2023-05-08T11:49:16.530Z,1.13
2023-05-08T11:50:16.683Z,2.12
2023-05-08T11:51:16.498Z,2.00
2023-05-08T11:52:16.523Z,1.64
2023-05-08T11:53:16.517Z,1.47
2023-05-08T11:54:16.519Z,1.30
2023-05-08T11:55:16.503Z,1.84
2023-05-08T11:56:16.542Z,1.63
2023-05-08T11:57:16.510Z,1.61
2023-05-08T11:58:16.510Z,1.71
2023-05-08T11:59:16.545Z,1.39
2023-05-08T12:00:16.892Z,1.50
2023-05-08T12:01:16.530Z,1.33
2023-05-08T12:02:16.531Z,1.44
2023-05-08T12:03:16.602Z,1.94
2023-05-08T12:04:16.700Z,1.92
2023-05-08T12:05:16.419Z,1.39
2023-05-08T12:06:16.374Z,1.36
2023-05-08T12:07:16.332Z,1.22
2023-05-08T12:08:16.304Z,1.41
2023-05-08T12:09:16.272Z,2.31
2023-05-08T12:10:16.828Z,1.32
2023-05-08T12:11:16.223Z,1.60
2023-05-08T12:12:16.200Z,1.35
2023-05-08T12:13:16.196Z,1.62
2023-05-08T12:14:16.132Z,1.42
2023-05-08T12:15:16.126Z,1.45
2023-05-08T12:16:16.118Z,1.24
2023-05-08T12:17:16.318Z,1.59
2023-05-08T12:18:16.194Z,1.27
2023-05-08T12:19:16.141Z,1.55
2023-05-08T12:20:16.875Z,1.37
2023-05-08T12:21:16.158Z,1.29
2023-05-08T12:22:16.186Z,1.66
2023-05-08T12:23:16.193Z,1.37
2023-05-08T12:24:16.220Z,1.05
2023-05-08T12:25:16.514Z,1.27
2023-05-08T12:26:16.220Z,1.28
2023-05-08T12:27:16.230Z,1.80
2023-05-08T12:28:16.254Z,1.30
2023-05-08T12:29:16.292Z,1.13
2023-05-08T12:30:16.941Z,1.05
2023-05-08T12:31:16.308Z,1.38
2023-05-08T12:32:16.305Z,1.28
2023-05-08T12:33:16.374Z,0.82
2023-05-08T12:34:16.330Z,1.39
2023-05-08T12:35:16.335Z,1.39
2023-05-08T12:36:16.539Z,1.08
2023-05-08T12:37:16.473Z,1.30
2023-05-08T12:38:16.415Z,1.25
2023-05-08T12:39:16.422Z,1.28
2023-05-08T12:40:16.409Z,1.49
2023-05-08T12:41:16.431Z,1.43
2023-05-08T12:42:16.448Z,1.25
2023-05-08T12:43:16.628Z,1.26
2023-05-08T12:44:16.503Z,0.85
2023-05-08T12:45:16.502Z,1.30
2023-05-08T12:46:16.541Z,1.00
2023-05-08T12:47:16.477Z,1.21
2023-05-08T12:48:16.459Z,1.06
2023-05-08T12:49:16.509Z,1.22
2023-05-08T12:50:16.492Z,1.24
2023-05-08T12:51:16.355Z,1.00
2023-05-08T12:52:16.406Z,1.13
2023-05-08T12:53:16.317Z,1.11
2023-05-08T12:54:16.304Z,1.15
2023-05-08T12:55:16.236Z,1.28
2023-05-08T12:56:16.173Z,1.20
2023-05-08T12:57:16.182Z,0.96
2023-05-08T12:58:16.268Z,1.35
2023-05-08T12:59:16.237Z,1.25
2023-05-08T13:00:16.592Z,1.06
2023-05-08T13:01:16.274Z,1.23
2023-05-08T13:02:17.017Z,1.17
2023-05-08T13:03:16.460Z,1.03
2023-05-08T13:04:16.428Z,1.57
2023-05-08T13:05:16.436Z,0.75
2023-05-08T13:06:16.379Z,1.18
2023-05-08T13:07:16.398Z,1.24
2023-05-08T13:08:16.420Z,1.16
2023-05-08T13:09:16.491Z,1.34
2023-05-08T13:10:16.469Z,1.26
2023-05-08T13:11:16.482Z,1.00
2023-05-08T13:12:16.503Z,1.31
2023-05-08T13:13:16.570Z,1.16
2023-05-08T13:14:16.554Z,1.11
2023-05-08T13:15:16.554Z,1.18
2023-05-08T13:16:16.610Z,1.19
2023-05-08T13:17:16.594Z,1.14
2023-05-08T13:18:17.094Z,0.87